sensor_id;sensor_type;location;lat;lon;timestamp;temperature;humidity
50067;DHT22;35952;52.524;13.340;2022-08-19T00:00:09;22.00;99.90
50067;DHT22;35952;52.524;13.340;2022-08-19T00:02:36;22.00;99.90
50067;DHT22;35952;52.524;13.340;2022-08-19T00:05:02;22.10;99.90
50067;DHT22;35952;52.524;13.340;2022-08-19T00:07:28;22.10;99.90
50067;DHT22;35952;52.524;13.340;2022-08-19T00:09:53;22.10;99.90
50067;DHT22;35952;52.524;13.340;2022-08-19T00:12:19;22.20;99.90
50067;DHT22;35952;52.524;13.340;2022-08-19T00:14:45;22.10;99.90
50067;DHT22;35952;52.524;13.340;2022-08-19T00:17:11;22.10;99.90
50067;DHT22;35952;52.524;13.340;2022-08-19T00:19:38;22.00;99.90
50067;DHT22;35952;52.524;13.340;2022-08-19T00:22:04;22.00;99.90
50067;DHT22;35952;52.524;13.340;2022-08-19T00:24:30;22.10;99.90
50067;DHT22;35952;52.524;13.340;2022-08-19T00:26:56;22.10;99.90
50067;DHT22;35952;52.524;13.340;2022-08-19T00:29:23;22.10;99.90
50067;DHT22;35952;52.524;13.340;2022-08-19T00:31:50;22.20;99.90
50067;DHT22;35952;52.524;13.340;2022-08-19T00:34:18;22.20;99.90
50067;DHT22;35952;52.524;13.340;2022-08-19T00:36:45;22.10;99.90
50067;DHT22;35952;52.524;13.340;2022-08-19T00:39:13;22.10;99.90
50067;DHT22;35952;52.524;13.340;2022-08-19T00:41:39;22.30;99.90
50067;DHT22;35952;52.524;13.340;2022-08-19T00:44:12;22.30;99.90
50067;DHT22;35952;52.524;13.340;2022-08-19T00:46:40;22.30;99.90
50067;DHT22;35952;52.524;13.340;2022-08-19T00:49:11;22.20;99.90
50067;DHT22;35952;52.524;13.340;2022-08-19T00:51:39;22.20;99.90
50067;DHT22;35952;52.524;13.340;2022-08-19T00:54:06;22.10;99.90
50067;DHT22;35952;52.524;13.340;2022-08-19T00:56:32;22.10;99.90
50067;DHT22;35952;52.524;13.340;2022-08-19T00:58:59;22.10;99.90
50067;DHT22;35952;52.524;13.340;2022-08-19T01:01:25;22.10;99.90
50067;DHT22;35952;52.524;13.340;2022-08-19T01:03:51;22.20;99.90
50067;DHT22;35952;52.524;13.340;2022-08-19T01:06:16;22.30;99.90
50067;DHT22;35952;52.524;13.340;2022-08-19T01:08:42;22.20;99.90
50067;DHT22;35952;52.524;13.340;2022-08-19T01:11:08;22.10;99.90
50067;DHT22;35952;52.524;13.340;2022-08-19T01:13:34;21.80;99.90
50067;DHT22;35952;52.524;13.340;2022-08-19T01:16:05;21.70;99.90
50067;DHT22;35952;52.524;13.340;2022-08-19T01:18:32;21.60;99.90
50067;DHT22;35952;52.524;13.340;2022-08-19T01:21:11;21.40;99.90
50067;DHT22;35952;52.524;13.340;2022-08-19T01:23:38;21.60;99.90
50067;DHT22;35952;52.524;13.340;2022-08-19T01:26:18;21.30;99.90
50067;DHT22;35952;52.524;13.340;2022-08-19T01:28:46;21.30;99.90
50067;DHT22;35952;52.524;13.340;2022-08-19T01:31:16;21.20;99.90
50067;DHT22;35952;52.524;13.340;2022-08-19T01:33:42;21.20;99.90
50067;DHT22;35952;52.524;13.340;2022-08-19T01:36:11;21.20;99.90
50067;DHT22;35952;52.524;13.340;2022-08-19T01:38:40;21.30;99.90
50067;DHT22;35952;52.524;13.340;2022-08-19T01:41:08;21.10;99.90
50067;DHT22;35952;52.524;13.340;2022-08-19T01:43:33;21.10;99.90
50067;DHT22;35952;52.524;13.340;2022-08-19T01:45:59;21.10;99.90
50067;DHT22;35952;52.524;13.340;2022-08-19T01:48:26;21.20;99.90
50067;DHT22;35952;52.524;13.340;2022-08-19T01:50:51;21.30;99.90
50067;DHT22;35952;52.524;13.340;2022-08-19T01:53:17;21.20;99.90
50067;DHT22;35952;52.524;13.340;2022-08-19T01:55:43;21.10;99.90
50067;DHT22;35952;52.524;13.340;2022-08-19T01:58:18;21.10;99.90
50067;DHT22;35952;52.524;13.340;2022-08-19T02:00:45;21.20;99.90
50067;DHT22;35952;52.524;13.340;2022-08-19T02:03:11;21.20;99.90
50067;DHT22;35952;52.524;13.340;2022-08-19T02:05:38;21.20;99.90
50067;DHT22;35952;52.524;13.340;2022-08-19T02:08:04;21.10;99.90
50067;DHT22;35952;52.524;13.340;2022-08-19T02:10:30;21.20;99.90
50067;DHT22;35952;52.524;13.340;2022-08-19T02:12:55;21.10;99.90
50067;DHT22;35952;52.524;13.340;2022-08-19T02:15:21;21.20;99.90
50067;DHT22;35952;52.524;13.340;2022-08-19T02:17:47;21.20;99.90
50067;DHT22;35952;52.524;13.340;2022-08-19T02:20:13;21.10;99.90
50067;DHT22;35952;52.524;13.340;2022-08-19T02:22:40;21.20;99.90
50067;DHT22;35952;52.524;13.340;2022-08-19T02:25:09;21.20;99.90
50067;DHT22;35952;52.524;13.340;2022-08-19T02:27:35;21.20;99.90
50067;DHT22;35952;52.524;13.340;2022-08-19T02:30:00;21.20;99.90
50067;DHT22;35952;52.524;13.340;2022-08-19T02:32:26;21.20;99.90
50067;DHT22;35952;52.524;13.340;2022-08-19T02:34:52;21.20;99.90
50067;DHT22;35952;52.524;13.340;2022-08-19T02:37:18;20.90;99.90
50067;DHT22;35952;52.524;13.340;2022-08-19T02:40:02;20.80;99.90
50067;DHT22;35952;52.524;13.340;2022-08-19T02:42:28;20.80;99.90
50067;DHT22;35952;52.524;13.340;2022-08-19T02:44:55;20.80;99.90
50067;DHT22;35952;52.524;13.340;2022-08-19T02:47:21;20.70;99.90
50067;DHT22;35952;52.524;13.340;2022-08-19T02:49:46;20.60;99.90
50067;DHT22;35952;52.524;13.340;2022-08-19T02:52:15;20.60;99.90
50067;DHT22;35952;52.524;13.340;2022-08-19T02:54:40;20.60;99.90
50067;DHT22;35952;52.524;13.340;2022-08-19T02:57:06;20.70;99.90
50067;DHT22;35952;52.524;13.340;2022-08-19T02:59:32;20.70;99.90
50067;DHT22;35952;52.524;13.340;2022-08-19T03:01:57;20.70;99.90
50067;DHT22;35952;52.524;13.340;2022-08-19T03:04:23;20.60;99.90
50067;DHT22;35952;52.524;13.340;2022-08-19T03:06:50;20.60;99.90
50067;DHT22;35952;52.524;13.340;2022-08-19T03:09:16;20.60;99.90
50067;DHT22;35952;52.524;13.340;2022-08-19T03:11:42;20.70;99.90
50067;DHT22;35952;52.524;13.340;2022-08-19T03:14:09;20.80;99.90
50067;DHT22;35952;52.524;13.340;2022-08-19T03:16:40;20.80;99.90
50067;DHT22;35952;52.524;13.340;2022-08-19T03:19:06;20.70;99.90
50067;DHT22;35952;52.524;13.340;2022-08-19T03:21:33;20.80;99.90
50067;DHT22;35952;52.524;13.340;2022-08-19T03:24:04;20.80;99.90
50067;DHT22;35952;52.524;13.340;2022-08-19T03:26:30;20.70;99.90
50067;DHT22;35952;52.524;13.340;2022-08-19T03:28:56;20.70;99.90
50067;DHT22;35952;52.524;13.340;2022-08-19T03:31:23;20.60;99.90
50067;DHT22;35952;52.524;13.340;2022-08-19T03:33:50;20.70;99.90
50067;DHT22;35952;52.524;13.340;2022-08-19T03:36:24;20.60;99.90
50067;DHT22;35952;52.524;13.340;2022-08-19T03:38:52;20.70;99.90
50067;DHT22;35952;52.524;13.340;2022-08-19T03:41:22;20.70;99.90
50067;DHT22;35952;52.524;13.340;2022-08-19T03:43:48;20.70;99.90
50067;DHT22;35952;52.524;13.340;2022-08-19T03:46:20;20.70;99.90
50067;DHT22;35952;52.524;13.340;2022-08-19T03:48:46;20.80;99.90
50067;DHT22;35952;52.524;13.340;2022-08-19T03:51:38;20.70;99.90
50067;DHT22;35952;52.524;13.340;2022-08-19T03:54:06;20.80;99.90
50067;DHT22;35952;52.524;13.340;2022-08-19T03:56:34;20.80;99.90
50067;DHT22;35952;52.524;13.340;2022-08-19T03:59:00;20.70;99.90
50067;DHT22;35952;52.524;13.340;2022-08-19T04:01:28;20.60;99.90
50067;DHT22;35952;52.524;13.340;2022-08-19T04:03:55;20.70;99.90
50067;DHT22;35952;52.524;13.340;2022-08-19T04:06:26;20.80;99.90
50067;DHT22;35952;52.524;13.340;2022-08-19T04:08:53;20.80;99.90
50067;DHT22;35952;52.524;13.340;2022-08-19T04:11:25;20.80;99.90
50067;DHT22;35952;52.524;13.340;2022-08-19T04:13:52;20.70;99.90
50067;DHT22;35952;52.524;13.340;2022-08-19T04:16:19;20.70;99.90
50067;DHT22;35952;52.524;13.340;2022-08-19T04:18:46;20.80;99.90
50067;DHT22;35952;52.524;13.340;2022-08-19T04:21:23;20.80;99.90
50067;DHT22;35952;52.524;13.340;2022-08-19T04:23:49;20.70;99.90
50067;DHT22;35952;52.524;13.340;2022-08-19T04:26:17;20.70;99.90
50067;DHT22;35952;52.524;13.340;2022-08-19T04:28:43;20.80;99.90
50067;DHT22;35952;52.524;13.340;2022-08-19T04:31:15;20.70;99.90
50067;DHT22;35952;52.524;13.340;2022-08-19T04:33:41;20.80;99.90
50067;DHT22;35952;52.524;13.340;2022-08-19T04:36:07;20.80;99.90
50067;DHT22;35952;52.524;13.340;2022-08-19T04:38:33;20.90;99.90
50067;DHT22;35952;52.524;13.340;2022-08-19T04:40:58;20.90;99.90
50067;DHT22;35952;52.524;13.340;2022-08-19T04:43:44;20.80;99.90
50067;DHT22;35952;52.524;13.340;2022-08-19T04:46:13;20.80;99.90
50067;DHT22;35952;52.524;13.340;2022-08-19T04:48:39;20.80;99.90
50067;DHT22;35952;52.524;13.340;2022-08-19T04:51:11;20.90;99.90
50067;DHT22;35952;52.524;13.340;2022-08-19T04:53:39;20.90;99.90
50067;DHT22;35952;52.524;13.340;2022-08-19T04:56:16;20.90;99.90
50067;DHT22;35952;52.524;13.340;2022-08-19T04:58:44;20.80;99.90
50067;DHT22;35952;52.524;13.340;2022-08-19T05:01:21;21.00;99.90
50067;DHT22;35952;52.524;13.340;2022-08-19T05:03:47;21.00;99.90
50067;DHT22;35952;52.524;13.340;2022-08-19T05:06:14;21.00;99.90
50067;DHT22;35952;52.524;13.340;2022-08-19T05:08:41;21.10;99.90
50067;DHT22;35952;52.524;13.340;2022-08-19T05:11:17;21.10;99.90
50067;DHT22;35952;52.524;13.340;2022-08-19T05:13:44;21.10;99.90
50067;DHT22;35952;52.524;13.340;2022-08-19T05:16:11;21.30;99.90
50067;DHT22;35952;52.524;13.340;2022-08-19T05:18:37;21.40;99.90
50067;DHT22;35952;52.524;13.340;2022-08-19T05:21:21;21.50;99.90
50067;DHT22;35952;52.524;13.340;2022-08-19T05:24:06;21.80;99.90
50067;DHT22;35952;52.524;13.340;2022-08-19T05:26:36;22.60;99.90
50067;DHT22;35952;52.524;13.340;2022-08-19T05:29:03;23.30;99.90
50067;DHT22;35952;52.524;13.340;2022-08-19T05:31:29;23.60;99.90
50067;DHT22;35952;52.524;13.340;2022-08-19T05:33:55;24.00;99.90
50067;DHT22;35952;52.524;13.340;2022-08-19T05:36:24;24.50;99.90
50067;DHT22;35952;52.524;13.340;2022-08-19T05:38:49;24.90;99.90
50067;DHT22;35952;52.524;13.340;2022-08-19T05:41:15;25.40;99.90
50067;DHT22;35952;52.524;13.340;2022-08-19T05:43:42;25.30;99.90
50067;DHT22;35952;52.524;13.340;2022-08-19T05:46:07;25.10;99.90
50067;DHT22;35952;52.524;13.340;2022-08-19T05:48:34;24.70;99.90
50067;DHT22;35952;52.524;13.340;2022-08-19T05:51:05;24.20;99.90
50067;DHT22;35952;52.524;13.340;2022-08-19T05:53:32;23.90;99.90
50067;DHT22;35952;52.524;13.340;2022-08-19T05:55:57;23.70;99.90
50067;DHT22;35952;52.524;13.340;2022-08-19T05:58:23;23.50;99.90
50067;DHT22;35952;52.524;13.340;2022-08-19T06:00:49;23.50;99.90
50067;DHT22;35952;52.524;13.340;2022-08-19T06:03:14;23.50;99.90
50067;DHT22;35952;52.524;13.340;2022-08-19T06:05:41;23.90;99.90
50067;DHT22;35952;52.524;13.340;2022-08-19T06:08:07;24.10;99.90
50067;DHT22;35952;52.524;13.340;2022-08-19T06:10:32;24.00;99.90
50067;DHT22;35952;52.524;13.340;2022-08-19T06:12:58;23.70;99.90
50067;DHT22;35952;52.524;13.340;2022-08-19T06:15:23;23.60;99.90
50067;DHT22;35952;52.524;13.340;2022-08-19T06:17:51;23.40;99.90
50067;DHT22;35952;52.524;13.340;2022-08-19T06:20:16;23.30;99.90
50067;DHT22;35952;52.524;13.340;2022-08-19T06:22:45;23.10;99.90
50067;DHT22;35952;52.524;13.340;2022-08-19T06:25:12;23.10;99.90
50067;DHT22;35952;52.524;13.340;2022-08-19T06:27:39;23.10;99.90
50067;DHT22;35952;52.524;13.340;2022-08-19T06:30:05;23.10;99.90
50067;DHT22;35952;52.524;13.340;2022-08-19T06:32:31;23.20;99.90
50067;DHT22;35952;52.524;13.340;2022-08-19T06:34:57;23.30;99.90
50067;DHT22;35952;52.524;13.340;2022-08-19T06:37:22;23.30;99.90
50067;DHT22;35952;52.524;13.340;2022-08-19T06:39:49;23.20;99.90
50067;DHT22;35952;52.524;13.340;2022-08-19T06:42:15;23.30;99.90
50067;DHT22;35952;52.524;13.340;2022-08-19T06:44:46;23.40;99.90
50067;DHT22;35952;52.524;13.340;2022-08-19T06:47:15;23.40;99.90
50067;DHT22;35952;52.524;13.340;2022-08-19T06:49:42;23.30;99.90
50067;DHT22;35952;52.524;13.340;2022-08-19T06:52:08;23.30;99.90
50067;DHT22;35952;52.524;13.340;2022-08-19T06:54:34;23.30;99.90
50067;DHT22;35952;52.524;13.340;2022-08-19T06:57:00;23.20;99.90
50067;DHT22;35952;52.524;13.340;2022-08-19T06:59:30;23.10;99.90
50067;DHT22;35952;52.524;13.340;2022-08-19T07:01:58;23.10;99.90
50067;DHT22;35952;52.524;13.340;2022-08-19T07:04:28;23.10;99.90
50067;DHT22;35952;52.524;13.340;2022-08-19T07:06:59;23.00;99.90
50067;DHT22;35952;52.524;13.340;2022-08-19T07:09:25;23.00;99.90
50067;DHT22;35952;52.524;13.340;2022-08-19T07:11:53;22.90;99.90
50067;DHT22;35952;52.524;13.340;2022-08-19T07:14:22;22.90;99.90
50067;DHT22;35952;52.524;13.340;2022-08-19T07:16:50;22.90;99.90
50067;DHT22;35952;52.524;13.340;2022-08-19T07:19:17;22.90;99.90
50067;DHT22;35952;52.524;13.340;2022-08-19T07:21:43;22.90;99.90
50067;DHT22;35952;52.524;13.340;2022-08-19T07:24:09;23.00;99.90
50067;DHT22;35952;52.524;13.340;2022-08-19T07:26:39;23.20;99.90
50067;DHT22;35952;52.524;13.340;2022-08-19T07:29:05;23.20;99.90
50067;DHT22;35952;52.524;13.340;2022-08-19T07:31:31;23.40;99.90
50067;DHT22;35952;52.524;13.340;2022-08-19T07:34:06;23.30;99.90
50067;DHT22;35952;52.524;13.340;2022-08-19T07:36:33;23.30;99.90
50067;DHT22;35952;52.524;13.340;2022-08-19T07:39:00;23.40;99.90
50067;DHT22;35952;52.524;13.340;2022-08-19T07:41:28;23.30;99.90
50067;DHT22;35952;52.524;13.340;2022-08-19T07:43:54;23.40;99.90
50067;DHT22;35952;52.524;13.340;2022-08-19T07:46:21;23.40;99.90
50067;DHT22;35952;52.524;13.340;2022-08-19T07:48:48;23.40;99.90
50067;DHT22;35952;52.524;13.340;2022-08-19T07:51:17;23.40;99.90
50067;DHT22;35952;52.524;13.340;2022-08-19T07:53:43;23.30;99.90
50067;DHT22;35952;52.524;13.340;2022-08-19T07:56:11;23.20;99.90
50067;DHT22;35952;52.524;13.340;2022-08-19T07:58:39;23.20;99.90
50067;DHT22;35952;52.524;13.340;2022-08-19T08:01:07;23.30;99.90
50067;DHT22;35952;52.524;13.340;2022-08-19T08:03:36;23.30;99.90
50067;DHT22;35952;52.524;13.340;2022-08-19T08:06:20;23.30;99.90
50067;DHT22;35952;52.524;13.340;2022-08-19T08:09:05;23.20;99.90
50067;DHT22;35952;52.524;13.340;2022-08-19T08:11:41;23.20;99.90
50067;DHT22;35952;52.524;13.340;2022-08-19T08:14:08;23.10;99.90
50067;DHT22;35952;52.524;13.340;2022-08-19T08:16:36;23.10;99.90
50067;DHT22;35952;52.524;13.340;2022-08-19T08:19:06;23.10;99.90
50067;DHT22;35952;52.524;13.340;2022-08-19T08:21:33;23.10;99.90
50067;DHT22;35952;52.524;13.340;2022-08-19T08:23:59;23.20;99.90
50067;DHT22;35952;52.524;13.340;2022-08-19T08:26:25;23.30;99.90
50067;DHT22;35952;52.524;13.340;2022-08-19T08:28:51;23.30;99.90
50067;DHT22;35952;52.524;13.340;2022-08-19T08:31:17;23.30;99.90
50067;DHT22;35952;52.524;13.340;2022-08-19T08:33:44;23.30;99.90
50067;DHT22;35952;52.524;13.340;2022-08-19T08:36:11;23.30;99.90
50067;DHT22;35952;52.524;13.340;2022-08-19T08:38:37;23.30;99.90
50067;DHT22;35952;52.524;13.340;2022-08-19T08:43:40;23.40;99.90
50067;DHT22;35952;52.524;13.340;2022-08-19T08:46:13;23.40;99.90
50067;DHT22;35952;52.524;13.340;2022-08-19T08:49:04;23.30;99.90
50067;DHT22;35952;52.524;13.340;2022-08-19T08:51:40;23.30;99.90
50067;DHT22;35952;52.524;13.340;2022-08-19T08:54:08;23.30;99.90
50067;DHT22;35952;52.524;13.340;2022-08-19T08:56:37;23.30;99.90
50067;DHT22;35952;52.524;13.340;2022-08-19T08:59:31;23.20;99.90
50067;DHT22;35952;52.524;13.340;2022-08-19T09:01:59;23.20;99.90
50067;DHT22;35952;52.524;13.340;2022-08-19T09:04:25;23.20;99.90
50067;DHT22;35952;52.524;13.340;2022-08-19T09:09:41;23.30;99.90
50067;DHT22;35952;52.524;13.340;2022-08-19T09:14:58;23.50;99.90
50067;DHT22;35952;52.524;13.340;2022-08-19T09:17:27;23.40;99.90
50067;DHT22;35952;52.524;13.340;2022-08-19T09:22:37;23.50;99.90
50067;DHT22;35952;52.524;13.340;2022-08-19T09:25:04;23.60;99.90
50067;DHT22;35952;52.524;13.340;2022-08-19T09:27:31;23.70;99.90
50067;DHT22;35952;52.524;13.340;2022-08-19T09:29:57;24.00;99.90
50067;DHT22;35952;52.524;13.340;2022-08-19T09:32:23;24.20;99.90
50067;DHT22;35952;52.524;13.340;2022-08-19T09:34:51;24.20;99.90
50067;DHT22;35952;52.524;13.340;2022-08-19T09:37:20;24.30;99.90
50067;DHT22;35952;52.524;13.340;2022-08-19T09:39:45;24.40;99.90
50067;DHT22;35952;52.524;13.340;2022-08-19T09:42:11;24.50;99.90
50067;DHT22;35952;52.524;13.340;2022-08-19T09:44:39;24.40;99.90
50067;DHT22;35952;52.524;13.340;2022-08-19T09:47:05;24.50;99.90
50067;DHT22;35952;52.524;13.340;2022-08-19T09:49:31;24.50;99.90
50067;DHT22;35952;52.524;13.340;2022-08-19T09:51:57;24.60;99.90
50067;DHT22;35952;52.524;13.340;2022-08-19T09:54:23;24.50;99.90
50067;DHT22;35952;52.524;13.340;2022-08-19T09:56:49;24.50;99.90
50067;DHT22;35952;52.524;13.340;2022-08-19T09:59:14;24.50;99.90
50067;DHT22;35952;52.524;13.340;2022-08-19T10:01:40;24.50;99.90
50067;DHT22;35952;52.524;13.340;2022-08-19T10:04:06;24.40;99.90
50067;DHT22;35952;52.524;13.340;2022-08-19T10:06:35;24.50;99.90
50067;DHT22;35952;52.524;13.340;2022-08-19T10:09:02;24.50;99.90
50067;DHT22;35952;52.524;13.340;2022-08-19T10:11:30;24.50;99.90
50067;DHT22;35952;52.524;13.340;2022-08-19T10:13:56;24.50;99.90
50067;DHT22;35952;52.524;13.340;2022-08-19T10:16:23;24.50;99.90
50067;DHT22;35952;52.524;13.340;2022-08-19T10:18:50;24.50;99.90
50067;DHT22;35952;52.524;13.340;2022-08-19T10:21:25;24.50;99.90
50067;DHT22;35952;52.524;13.340;2022-08-19T10:23:52;24.60;99.90
50067;DHT22;35952;52.524;13.340;2022-08-19T10:26:21;24.70;99.90
50067;DHT22;35952;52.524;13.340;2022-08-19T10:28:48;24.70;99.90
50067;DHT22;35952;52.524;13.340;2022-08-19T10:31:19;24.70;99.90
50067;DHT22;35952;52.524;13.340;2022-08-19T10:33:46;24.70;99.90
50067;DHT22;35952;52.524;13.340;2022-08-19T10:36:15;24.60;99.90
50067;DHT22;35952;52.524;13.340;2022-08-19T10:38:41;24.40;99.90
50067;DHT22;35952;52.524;13.340;2022-08-19T10:41:12;24.40;99.90
50067;DHT22;35952;52.524;13.340;2022-08-19T10:43:39;24.30;99.90
50067;DHT22;35952;52.524;13.340;2022-08-19T10:46:06;24.20;99.90
50067;DHT22;35952;52.524;13.340;2022-08-19T10:48:32;24.10;99.90
50067;DHT22;35952;52.524;13.340;2022-08-19T10:50:58;24.10;99.90
50067;DHT22;35952;52.524;13.340;2022-08-19T10:53:42;24.10;99.90
50067;DHT22;35952;52.524;13.340;2022-08-19T10:56:08;24.00;99.90
50067;DHT22;35952;52.524;13.340;2022-08-19T10:58:52;24.00;99.90
50067;DHT22;35952;52.524;13.340;2022-08-19T11:01:18;23.90;99.90
50067;DHT22;35952;52.524;13.340;2022-08-19T11:03:43;23.90;99.90
50067;DHT22;35952;52.524;13.340;2022-08-19T11:06:11;23.80;99.90
50067;DHT22;35952;52.524;13.340;2022-08-19T11:08:37;23.80;99.90
50067;DHT22;35952;52.524;13.340;2022-08-19T11:11:04;24.00;99.90
50067;DHT22;35952;52.524;13.340;2022-08-19T11:13:33;24.00;99.90
50067;DHT22;35952;52.524;13.340;2022-08-19T11:16:01;24.00;99.90
50067;DHT22;35952;52.524;13.340;2022-08-19T11:18:27;24.00;99.90
50067;DHT22;35952;52.524;13.340;2022-08-19T11:20:53;23.90;99.90
50067;DHT22;35952;52.524;13.340;2022-08-19T11:23:18;23.90;99.90
50067;DHT22;35952;52.524;13.340;2022-08-19T11:25:44;24.00;99.90
50067;DHT22;35952;52.524;13.340;2022-08-19T11:28:11;23.90;99.90
50067;DHT22;35952;52.524;13.340;2022-08-19T11:30:38;23.90;99.90
50067;DHT22;35952;52.524;13.340;2022-08-19T11:33:03;23.90;99.90
50067;DHT22;35952;52.524;13.340;2022-08-19T11:35:29;23.90;99.90
50067;DHT22;35952;52.524;13.340;2022-08-19T11:37:54;23.90;99.90
50067;DHT22;35952;52.524;13.340;2022-08-19T11:40:21;24.00;99.90
50067;DHT22;35952;52.524;13.340;2022-08-19T11:42:46;24.00;99.90
50067;DHT22;35952;52.524;13.340;2022-08-19T11:45:24;24.00;99.90
50067;DHT22;35952;52.524;13.340;2022-08-19T11:47:49;24.00;99.90
50067;DHT22;35952;52.524;13.340;2022-08-19T11:50:16;23.90;99.90
50067;DHT22;35952;52.524;13.340;2022-08-19T11:52:42;23.90;99.90
50067;DHT22;35952;52.524;13.340;2022-08-19T11:55:09;23.90;99.90
50067;DHT22;35952;52.524;13.340;2022-08-19T11:57:34;24.00;99.90
50067;DHT22;35952;52.524;13.340;2022-08-19T12:00:00;24.00;99.90
50067;DHT22;35952;52.524;13.340;2022-08-19T12:02:26;23.90;99.90
50067;DHT22;35952;52.524;13.340;2022-08-19T12:04:52;23.90;99.90
50067;DHT22;35952;52.524;13.340;2022-08-19T12:07:17;24.00;99.90
50067;DHT22;35952;52.524;13.340;2022-08-19T12:09:43;24.00;99.90
50067;DHT22;35952;52.524;13.340;2022-08-19T12:12:09;24.00;99.90
50067;DHT22;35952;52.524;13.340;2022-08-19T12:14:34;24.00;99.90
50067;DHT22;35952;52.524;13.340;2022-08-19T12:17:00;24.00;99.90
50067;DHT22;35952;52.524;13.340;2022-08-19T12:19:27;23.90;99.90
50067;DHT22;35952;52.524;13.340;2022-08-19T12:21:58;24.00;99.90
50067;DHT22;35952;52.524;13.340;2022-08-19T12:24:26;23.90;99.90
50067;DHT22;35952;52.524;13.340;2022-08-19T12:26:52;23.90;99.90
50067;DHT22;35952;52.524;13.340;2022-08-19T12:29:21;23.90;99.90
50067;DHT22;35952;52.524;13.340;2022-08-19T12:31:55;24.00;99.90
50067;DHT22;35952;52.524;13.340;2022-08-19T12:34:26;24.10;99.90
50067;DHT22;35952;52.524;13.340;2022-08-19T12:36:59;24.10;99.90
50067;DHT22;35952;52.524;13.340;2022-08-19T12:39:26;24.10;99.90
50067;DHT22;35952;52.524;13.340;2022-08-19T12:41:51;24.20;99.90
50067;DHT22;35952;52.524;13.340;2022-08-19T12:44:18;24.30;99.90
50067;DHT22;35952;52.524;13.340;2022-08-19T12:46:43;24.40;99.90
50067;DHT22;35952;52.524;13.340;2022-08-19T12:49:09;24.50;99.90
50067;DHT22;35952;52.524;13.340;2022-08-19T12:51:35;24.60;99.90
50067;DHT22;35952;52.524;13.340;2022-08-19T12:54:01;24.80;99.90
50067;DHT22;35952;52.524;13.340;2022-08-19T12:56:27;25.10;99.90
50067;DHT22;35952;52.524;13.340;2022-08-19T12:58:52;25.20;99.90
50067;DHT22;35952;52.524;13.340;2022-08-19T13:01:18;25.40;99.90
50067;DHT22;35952;52.524;13.340;2022-08-19T13:03:45;25.40;99.90
50067;DHT22;35952;52.524;13.340;2022-08-19T13:06:11;25.40;99.90
50067;DHT22;35952;52.524;13.340;2022-08-19T13:08:37;25.60;99.90
50067;DHT22;35952;52.524;13.340;2022-08-19T13:11:12;25.70;99.90
50067;DHT22;35952;52.524;13.340;2022-08-19T13:13:40;25.70;99.90
50067;DHT22;35952;52.524;13.340;2022-08-19T13:16:06;25.60;99.90
50067;DHT22;35952;52.524;13.340;2022-08-19T13:18:32;25.50;99.90
50067;DHT22;35952;52.524;13.340;2022-08-19T13:21:05;25.50;99.90
50067;DHT22;35952;52.524;13.340;2022-08-19T13:23:32;25.30;99.90
50067;DHT22;35952;52.524;13.340;2022-08-19T13:26:03;25.20;99.90
50067;DHT22;35952;52.524;13.340;2022-08-19T13:28:30;24.90;99.90
50067;DHT22;35952;52.524;13.340;2022-08-19T13:31:17;24.90;99.90
50067;DHT22;35952;52.524;13.340;2022-08-19T13:34:02;24.90;99.90
50067;DHT22;35952;52.524;13.340;2022-08-19T13:36:28;24.80;99.90
50067;DHT22;35952;52.524;13.340;2022-08-19T13:38:54;24.80;99.90
50067;DHT22;35952;52.524;13.340;2022-08-19T13:41:19;24.80;99.90
50067;DHT22;35952;52.524;13.340;2022-08-19T13:43:45;24.90;99.90
50067;DHT22;35952;52.524;13.340;2022-08-19T13:46:11;24.80;99.90
50067;DHT22;35952;52.524;13.340;2022-08-19T13:48:40;24.80;99.90
50067;DHT22;35952;52.524;13.340;2022-08-19T13:51:07;24.80;99.90
50067;DHT22;35952;52.524;13.340;2022-08-19T13:53:35;24.90;99.90
50067;DHT22;35952;52.524;13.340;2022-08-19T13:56:05;24.90;99.90
50067;DHT22;35952;52.524;13.340;2022-08-19T13:58:31;24.90;99.90
50067;DHT22;35952;52.524;13.340;2022-08-19T14:00:57;24.80;99.90
50067;DHT22;35952;52.524;13.340;2022-08-19T14:03:24;24.80;99.90
50067;DHT22;35952;52.524;13.340;2022-08-19T14:05:50;24.80;99.90
50067;DHT22;35952;52.524;13.340;2022-08-19T14:08:15;24.80;99.90
50067;DHT22;35952;52.524;13.340;2022-08-19T14:10:41;24.80;99.90
50067;DHT22;35952;52.524;13.340;2022-08-19T14:13:09;24.70;99.90
50067;DHT22;35952;52.524;13.340;2022-08-19T14:15:35;24.70;99.90
50067;DHT22;35952;52.524;13.340;2022-08-19T14:18:02;24.80;99.90
50067;DHT22;35952;52.524;13.340;2022-08-19T14:20:28;24.80;99.90
50067;DHT22;35952;52.524;13.340;2022-08-19T14:22:54;24.80;99.90
50067;DHT22;35952;52.524;13.340;2022-08-19T14:25:23;24.80;99.90
50067;DHT22;35952;52.524;13.340;2022-08-19T14:27:49;24.80;99.90
50067;DHT22;35952;52.524;13.340;2022-08-19T14:30:27;24.80;99.90
50067;DHT22;35952;52.524;13.340;2022-08-19T14:32:55;24.80;99.90
50067;DHT22;35952;52.524;13.340;2022-08-19T14:35:21;24.80;99.90
50067;DHT22;35952;52.524;13.340;2022-08-19T14:37:50;24.80;99.90
50067;DHT22;35952;52.524;13.340;2022-08-19T14:40:19;24.70;99.90
50067;DHT22;35952;52.524;13.340;2022-08-19T14:42:57;24.80;99.90
50067;DHT22;35952;52.524;13.340;2022-08-19T14:45:30;24.70;99.90
50067;DHT22;35952;52.524;13.340;2022-08-19T14:47:56;24.70;99.90
50067;DHT22;35952;52.524;13.340;2022-08-19T14:50:21;24.50;99.90
50067;DHT22;35952;52.524;13.340;2022-08-19T14:52:47;24.40;99.90
50067;DHT22;35952;52.524;13.340;2022-08-19T14:55:15;24.50;99.90
50067;DHT22;35952;52.524;13.340;2022-08-19T14:57:42;24.40;99.90
50067;DHT22;35952;52.524;13.340;2022-08-19T15:00:08;24.50;99.90
50067;DHT22;35952;52.524;13.340;2022-08-19T15:02:38;24.40;99.90
50067;DHT22;35952;52.524;13.340;2022-08-19T15:05:03;24.40;99.90
50067;DHT22;35952;52.524;13.340;2022-08-19T15:07:29;24.50;99.90
50067;DHT22;35952;52.524;13.340;2022-08-19T15:09:55;24.40;99.90
50067;DHT22;35952;52.524;13.340;2022-08-19T15:12:21;24.40;99.90
50067;DHT22;35952;52.524;13.340;2022-08-19T15:14:47;24.40;99.90
50067;DHT22;35952;52.524;13.340;2022-08-19T15:17:16;24.40;99.90
50067;DHT22;35952;52.524;13.340;2022-08-19T15:19:42;24.30;99.90
50067;DHT22;35952;52.524;13.340;2022-08-19T15:22:08;24.40;99.90
50067;DHT22;35952;52.524;13.340;2022-08-19T15:24:33;24.30;99.90
50067;DHT22;35952;52.524;13.340;2022-08-19T15:27:00;24.30;99.90
50067;DHT22;35952;52.524;13.340;2022-08-19T15:29:27;24.20;99.90